Triumph, Nebraska
Current Conditions -  °F | °C
As of 2:53 PM on Thursday 23 Oct 2014 (Local Time) from KBBW Reporting Station
Clear Clear  
Wind Chill: 71°   Ceiling: Unl
Heat Index: 71°   Visibility: 10mi
Dew Point: 48°   Wind: 15mph
Humidity: 44%   Direction: 220°SW
Pressure: 30"   Gusts: NA
Location:  41.1872°N, 100.067°W
Report Text: KBBW 231953Z AUTO 22013KT 10SM CLR 22/09 A3000 RMK AO2 SLP153 T02170089
Loading
Personal Weather Stations






























Interactive Weather Map
Tropical Storm Tracking
New forecast layout! Learn more

10-Day Weather Forecast

Advertisements
Track Severe Weather on mobile